This is the latest recevied weather packets stored in our database for station/object DK7LH-6. If no packets are shown the sender has not sent any weather packets the latest 10 day(s).
| Time | Temp. | Humidity | Pressure | Rain* | Wind** | Luminosity | Snow |
|---|---|---|---|---|---|---|---|
| 1778158836 | 14.44° C | 63% | 1016.7 hPa | 0 mm | - | 464 W/m² | - |
| 1778157968 | 14.44° C | 66% | 1016.6 hPa | 0 mm | - | 706 W/m² | - |
| 1778157039 | 13.89° C | 68% | 1016.5 hPa | 0 mm | - | 681 W/m² | - |
| 1778156170 | 12.78° C | 70% | 1016 hPa | 0 mm | - | 746 W/m² | - |
| 1778155272 | 12.22° C | 74% | 1015.6 hPa | 0 mm | - | 274 W/m² | - |
| 1778154342 | 11.67° C | 74% | 1015.8 hPa | 0 mm | - | 285 W/m² | - |
| 1778153473 | 12.78° C | 71% | 1015.6 hPa | 0 mm | - | 175 W/m² | - |
| 1778152543 | 12.78° C | 72% | 1015.6 hPa | 0 mm | - | 351 W/m² | - |
| 1778151676 | 11.67° C | 76% | 1015.5 hPa | 0 mm | - | 198 W/m² | - |
| 1778150746 | 11.67° C | 75% | 1015.6 hPa | 0 mm | - | 185 W/m² | - |
| 1778149877 | 11.11° C | 78% | 1015.5 hPa | 0 mm | - | 803 W/m² | - |
| 1778148947 | 10.56° C | 79% | 1015.3 hPa | 0 mm | - | 162 W/m² | - |
| 1778148017 | 10.56° C | 79% | 1015.3 hPa | 0 mm | - | 164 W/m² | - |
| 1778147149 | 10.56° C | 79% | 1015.1 hPa | 0 mm | - | 233 W/m² | - |
| 1778146219 | 10° C | 81% | 1015.2 hPa | 0 mm | - | 212 W/m² | - |
| 1778145351 | 10° C | 81% | 1015 hPa | 0 mm | - | 187 W/m² | - |
| 1778144421 | 10.56° C | 81% | 1014.7 hPa | 0 mm | - | 206 W/m² | - |
| 1778143553 | 10° C | 81% | 1014.6 hPa | 0 mm | - | 330 W/m² | - |
| 1778142623 | 10° C | 83% | 1014.5 hPa | 0 mm | - | 157 W/m² | - |
| 1778141756 | 10° C | 84% | 1014.4 hPa | 0 mm | - | 215 W/m² | - |
| 1778140826 | 10° C | 85% | 1014.4 hPa | 0 mm | - | 194 W/m² | - |
| 1778139957 | 9.44° C | 87% | 1014.1 hPa | 0 mm | - | 237 W/m² | - |
| 1778139027 | 8.89° C | 87% | 1014 hPa | 0 mm | - | 204 W/m² | - |
| 1778138159 | 8.89° C | 89% | 1013.8 hPa | 0 mm | - | 198 W/m² | - |
| 1778137229 | 8.89° C | 91% | 1013.9 hPa | 0 mm | - | 114 W/m² | - |
* Rain latest hour (hover to see other rain measurements)
** Current wind speed in m/s (hover to see current wind gust speed)